createdAt,value
2022-09-03T00:02:45.540Z,4.68
2022-09-03T00:08:04.011Z,4.20
2022-09-03T00:13:06.998Z,4.00
2022-09-03T00:18:18.310Z,4.20
2022-09-03T00:23:29.719Z,4.13
2022-09-03T00:28:53.272Z,4.65
2022-09-03T00:34:00.535Z,5.03
2022-09-03T00:39:02.557Z,4.78
2022-09-03T00:44:11.169Z,4.45
2022-09-03T00:49:51.639Z,4.53
2022-09-03T00:55:13.485Z,4.53
2022-09-03T01:00:17.601Z,4.90
2022-09-03T01:05:41.096Z,5.13
2022-09-03T01:11:04.436Z,4.85
2022-09-03T01:16:32.661Z,4.77
2022-09-03T01:22:03.426Z,4.95
2022-09-03T01:27:30.116Z,5.70
2022-09-03T01:33:07.999Z,4.97
2022-09-03T01:38:33.509Z,4.97
2022-09-03T01:43:37.922Z,4.85
2022-09-03T01:48:46.794Z,5.13
2022-09-03T01:54:10.881Z,5.55
2022-09-03T01:59:55.632Z,6.07
2022-09-03T02:11:24.665Z,6.32
2022-09-03T02:16:30.973Z,6.05
2022-09-03T02:21:35.926Z,6.55
2022-09-03T02:26:37.944Z,6.70
2022-09-03T02:31:40.077Z,7.60
2022-09-03T02:36:45.920Z,6.75
2022-09-03T02:46:59.189Z,5.80
2022-09-03T02:52:06.878Z,7.00
2022-09-03T02:58:44.656Z,5.60
2022-09-03T03:11:26.237Z,5.90
2022-09-03T03:16:28.462Z,5.53
2022-09-03T03:21:37.032Z,5.80
2022-09-03T03:26:45.980Z,6.03
2022-09-03T03:31:47.917Z,6.75
2022-09-03T03:36:49.845Z,5.88
2022-09-03T03:41:52.649Z,6.55
2022-09-03T03:46:54.617Z,6.32
2022-09-03T03:51:56.628Z,6.20
2022-09-03T03:56:58.634Z,6.22
2022-09-03T04:02:00.997Z,5.60
2022-09-03T04:07:03.252Z,6.40
2022-09-03T04:12:10.968Z,6.00
2022-09-03T04:17:12.950Z,6.70
2022-09-03T04:22:15.858Z,5.63
2022-09-03T04:27:17.938Z,6.07
2022-09-03T04:32:38.356Z,5.80
2022-09-03T04:37:40.483Z,5.85
2022-09-03T04:42:42.746Z,6.47
2022-09-03T04:47:55.980Z,5.63
2022-09-03T04:53:07.045Z,5.93
2022-09-03T04:58:09.984Z,5.85
2022-09-03T05:03:12.806Z,6.60
2022-09-03T05:08:14.815Z,5.77
2022-09-03T05:13:17.777Z,5.70
2022-09-03T05:18:19.824Z,5.70
2022-09-03T05:23:22.464Z,6.22
2022-09-03T05:28:27.931Z,6.20
2022-09-03T05:33:30.366Z,5.82
2022-09-03T05:38:32.462Z,5.80
2022-09-03T05:43:35.686Z,5.40
2022-09-03T05:48:45.226Z,5.00
2022-09-03T05:53:54.827Z,5.07
2022-09-03T05:59:01.106Z,4.40
2022-09-03T06:04:05.189Z,5.10
2022-09-03T06:09:10.807Z,4.25
2022-09-03T06:14:14.374Z,3.88
2022-09-03T06:19:16.424Z,4.47
2022-09-03T06:24:21.584Z,4.50
2022-09-03T06:29:23.738Z,4.18
2022-09-03T06:34:27.207Z,4.47
2022-09-03T06:39:29.266Z,4.00
2022-09-03T06:44:31.489Z,3.70
2022-09-03T06:49:33.505Z,3.72
2022-09-03T06:54:35.433Z,3.90
2022-09-03T06:59:37.580Z,3.50
2022-09-03T07:04:39.520Z,4.28
2022-09-03T07:09:44.035Z,3.92
2022-09-03T07:14:51.094Z,3.42
2022-09-03T07:24:55.300Z,3.22
2022-09-03T07:29:57.515Z,3.10
2022-09-03T07:34:59.428Z,3.13
2022-09-03T07:40:02.058Z,3.20
2022-09-03T07:45:10.082Z,3.57
2022-09-03T07:50:12.074Z,3.17
2022-09-03T07:55:14.845Z,3.33
2022-09-03T08:00:17.754Z,3.20
2022-09-03T08:05:23.032Z,2.27
2022-09-03T08:10:26.493Z,2.08
2022-09-03T08:15:28.845Z,2.55
2022-09-03T08:20:30.906Z,2.25
2022-09-03T08:25:33.213Z,1.50
2022-09-03T08:30:36.396Z,1.58
2022-09-03T08:35:39.758Z,1.20
2022-09-03T08:40:43.514Z,1.25
2022-09-03T08:45:45.924Z,1.30
2022-09-03T08:50:55.522Z,1.30
2022-09-03T08:56:04.482Z,1.30
2022-09-03T09:01:10.174Z,1.27
2022-09-03T09:06:35.004Z,1.60
2022-09-03T09:11:47.341Z,1.17
2022-09-03T09:17:02.420Z,1.40
2022-09-03T09:22:13.254Z,1.58
2022-09-03T09:27:17.471Z,1.30
2022-09-03T09:32:21.709Z,1.40
2022-09-03T09:37:24.675Z,1.58
2022-09-03T09:42:29.989Z,1.58
2022-09-03T09:47:39.098Z,1.20
2022-09-03T09:52:41.117Z,1.35
2022-09-03T09:57:43.150Z,1.33
2022-09-03T10:02:54.769Z,1.20
2022-09-03T10:07:57.160Z,1.63
2022-09-03T10:13:09.521Z,1.30
2022-09-03T10:18:26.419Z,2.13
2022-09-03T10:23:32.735Z,1.30
2022-09-03T10:28:40.523Z,1.20
2022-09-03T10:33:53.462Z,1.40
2022-09-03T10:39:05.346Z,1.70
2022-09-03T10:44:21.281Z,1.60
2022-09-03T10:49:23.484Z,1.20
2022-09-03T10:54:29.401Z,1.17
2022-09-03T11:00:00.175Z,1.52
2022-09-03T11:05:16.310Z,2.55
2022-09-03T11:10:33.561Z,1.30
2022-09-03T11:15:40.235Z,1.38
2022-09-03T11:20:43.107Z,1.42
2022-09-03T11:25:51.250Z,1.65
2022-09-03T11:31:21.548Z,1.30
2022-09-03T11:36:38.842Z,1.80
2022-09-03T11:41:40.828Z,2.03
2022-09-03T11:46:54.293Z,1.27
2022-09-03T11:52:02.982Z,1.48
2022-09-03T11:57:16.603Z,1.20
2022-09-03T12:02:31.285Z,1.42
2022-09-03T12:07:42.537Z,1.80
2022-09-03T12:13:06.041Z,1.30
2022-09-03T12:23:49.701Z,2.33
2022-09-03T12:28:55.508Z,1.30
2022-09-03T12:34:03.070Z,1.58
2022-09-03T12:39:13.014Z,1.27
2022-09-03T12:44:15.726Z,1.50
2022-09-03T12:49:33.656Z,1.30
2022-09-03T12:54:42.841Z,1.50
2022-09-03T12:59:49.775Z,2.50
2022-09-03T13:04:52.824Z,1.50
2022-09-03T13:10:04.280Z,1.70
2022-09-03T13:15:12.825Z,1.40
2022-09-03T13:20:29.385Z,1.65
2022-09-03T13:25:38.764Z,1.60
2022-09-03T13:30:52.659Z,1.80
2022-09-03T13:36:26.496Z,1.73
2022-09-03T13:41:37.606Z,1.60
2022-09-03T13:46:52.467Z,1.88
2022-09-03T13:52:01.896Z,2.00
2022-09-03T13:57:16.443Z,2.22
2022-09-03T14:02:41.213Z,2.33
2022-09-03T14:08:08.953Z,1.70
2022-09-03T14:13:38.306Z,2.17
2022-09-03T14:18:51.687Z,2.50
2022-09-03T14:23:59.685Z,2.40
2022-09-03T14:29:05.285Z,2.67
2022-09-03T14:34:26.073Z,2.63
2022-09-03T14:39:38.383Z,2.45
2022-09-03T14:45:00.628Z,2.67
2022-09-03T14:50:50.288Z,2.40
2022-09-03T14:56:18.538Z,2.55
2022-09-03T15:01:38.905Z,2.55
2022-09-03T15:07:06.624Z,3.60
2022-09-03T15:12:33.977Z,2.10
2022-09-03T15:17:56.638Z,2.38
2022-09-03T15:23:13.539Z,7.20
2022-09-03T15:28:18.357Z,3.72
2022-09-03T15:33:44.289Z,3.55
2022-09-03T15:39:11.537Z,3.58
2022-09-03T15:44:19.772Z,3.00
2022-09-03T15:49:46.714Z,2.38
2022-09-03T15:54:57.597Z,2.05
2022-09-03T16:00:07.376Z,2.30
2022-09-03T16:05:24.754Z,1.92
2022-09-03T16:10:40.205Z,2.33
2022-09-03T16:15:47.398Z,2.67
2022-09-03T16:21:08.240Z,2.35
2022-09-03T16:26:15.213Z,2.03
2022-09-03T16:31:26.231Z,2.38
2022-09-03T16:36:53.823Z,2.72
2022-09-03T16:42:13.771Z,2.35
2022-09-03T16:47:44.802Z,2.58
2022-09-03T16:53:09.464Z,2.55
2022-09-03T16:58:30.909Z,2.90
2022-09-03T17:04:10.501Z,2.58
2022-09-03T17:09:40.418Z,3.15
2022-09-03T17:14:46.565Z,3.00
2022-09-03T17:20:26.171Z,3.17
2022-09-03T17:26:01.886Z,3.47
2022-09-03T17:31:21.579Z,4.07
2022-09-03T17:36:31.383Z,3.63
2022-09-03T17:41:45.436Z,9.00
2022-09-03T17:47:15.560Z,9.25
2022-09-03T17:52:35.736Z,9.90
2022-09-03T17:58:01.347Z,11.82
2022-09-03T18:03:26.528Z,13.80
2022-09-03T18:08:49.344Z,15.00
2022-09-03T18:14:15.925Z,18.23
2022-09-03T18:19:54.863Z,20.02
2022-09-03T18:25:17.637Z,14.77
2022-09-03T18:30:44.679Z,8.45
2022-09-03T18:36:07.922Z,7.55
2022-09-03T18:41:53.307Z,8.50
2022-09-03T18:53:18.418Z,9.70
2022-09-03T18:58:45.583Z,9.68
2022-09-03T19:04:32.586Z,10.50
2022-09-03T19:10:08.712Z,8.82
2022-09-03T19:16:06.330Z,9.43
2022-09-03T19:21:38.988Z,8.93
2022-09-03T19:27:46.068Z,8.57
2022-09-03T19:33:25.761Z,9.02
2022-09-03T19:39:01.593Z,8.00
2022-09-03T19:44:56.004Z,8.27
2022-09-03T19:50:22.204Z,9.00
2022-09-03T19:55:48.750Z,9.00
2022-09-03T20:01:09.486Z,8.85
2022-09-03T20:06:31.090Z,9.25
2022-09-03T20:11:33.782Z,6.40
2022-09-03T20:17:16.410Z,6.70
2022-09-03T20:22:28.625Z,7.35
2022-09-03T20:27:36.481Z,7.43
2022-09-03T20:32:38.442Z,7.45
2022-09-03T20:38:06.791Z,8.10
2022-09-03T20:43:23.481Z,7.90
2022-09-03T20:48:50.252Z,8.50
2022-09-03T20:54:13.977Z,7.10
2022-09-03T20:59:25.072Z,6.80
2022-09-03T21:04:59.540Z,7.18
2022-09-03T21:10:13.632Z,7.65
2022-09-03T21:15:30.869Z,6.40
2022-09-03T21:21:03.596Z,7.05
2022-09-03T21:26:29.613Z,6.65
2022-09-03T21:31:40.550Z,7.38
2022-09-03T21:36:43.672Z,7.22
2022-09-03T21:42:09.540Z,7.40
2022-09-03T21:47:17.157Z,6.65
2022-09-03T21:52:27.137Z,7.25
2022-09-03T21:57:36.789Z,7.50
2022-09-03T22:02:38.918Z,6.63
2022-09-03T22:07:46.775Z,7.30
2022-09-03T22:13:14.854Z,6.78
2022-09-03T22:18:25.626Z,7.18
2022-09-03T22:23:44.861Z,7.10
2022-09-03T22:28:55.378Z,7.13
2022-09-03T22:34:27.665Z,6.65
2022-09-03T22:39:40.862Z,7.57
2022-09-03T22:45:18.353Z,7.30
2022-09-03T22:50:37.112Z,7.43
2022-09-03T22:55:41.626Z,7.45
2022-09-03T23:01:08.145Z,7.93
2022-09-03T23:06:21.066Z,7.97
2022-09-03T23:11:27.006Z,7.90
2022-09-03T23:16:55.030Z,8.95
2022-09-03T23:22:00.421Z,8.60
2022-09-03T23:27:06.878Z,8.60
2022-09-03T23:32:09.782Z,8.80
2022-09-03T23:37:39.548Z,8.63
2022-09-03T23:43:07.245Z,8.20
2022-09-03T23:48:21.942Z,9.10
2022-09-03T23:53:53.127Z,9.23
2022-09-03T23:58:58.072Z,8.82
